sensor_id;sensor_type;location;lat;lon;timestamp;P1;durP1;ratioP1;P2;durP2;ratioP2
62861;SDS011;48953;53.110;5.592;2022-09-13T00:01:23;22.05;;;14.05;;
62861;SDS011;48953;53.110;5.592;2022-09-13T00:03:49;22.10;;;12.43;;
62861;SDS011;48953;53.110;5.592;2022-09-13T00:06:19;17.15;;;11.05;;
62861;SDS011;48953;53.110;5.592;2022-09-13T00:08:45;15.27;;;9.73;;
62861;SDS011;48953;53.110;5.592;2022-09-13T00:11:22;15.75;;;9.88;;
62861;SDS011;48953;53.110;5.592;2022-09-13T00:13:49;13.48;;;9.73;;
62861;SDS011;48953;53.110;5.592;2022-09-13T00:16:16;17.60;;;10.50;;
62861;SDS011;48953;53.110;5.592;2022-09-13T00:18:43;14.98;;;10.20;;
62861;SDS011;48953;53.110;5.592;2022-09-13T00:21:11;14.05;;;10.23;;
62861;SDS011;48953;53.110;5.592;2022-09-13T00:23:39;18.10;;;10.88;;
62861;SDS011;48953;53.110;5.592;2022-09-13T00:26:08;17.00;;;10.13;;
62861;SDS011;48953;53.110;5.592;2022-09-13T00:28:35;14.77;;;10.45;;
62861;SDS011;48953;53.110;5.592;2022-09-13T00:31:02;15.45;;;10.90;;
62861;SDS011;48953;53.110;5.592;2022-09-13T00:33:39;15.55;;;11.27;;
62861;SDS011;48953;53.110;5.592;2022-09-13T00:36:06;17.13;;;11.73;;
62861;SDS011;48953;53.110;5.592;2022-09-13T00:38:34;19.85;;;11.60;;
62861;SDS011;48953;53.110;5.592;2022-09-13T00:41:01;17.17;;;12.07;;
62861;SDS011;48953;53.110;5.592;2022-09-13T00:43:47;16.98;;;11.45;;
62861;SDS011;48953;53.110;5.592;2022-09-13T00:49:08;16.77;;;11.57;;
62861;SDS011;48953;53.110;5.592;2022-09-13T00:51:41;14.43;;;11.50;;
62861;SDS011;48953;53.110;5.592;2022-09-13T00:54:11;19.35;;;11.90;;
62861;SDS011;48953;53.110;5.592;2022-09-13T00:56:39;17.73;;;11.10;;
62861;SDS011;48953;53.110;5.592;2022-09-13T01:01:58;17.13;;;10.50;;
62861;SDS011;48953;53.110;5.592;2022-09-13T01:04:26;19.45;;;11.02;;
62861;SDS011;48953;53.110;5.592;2022-09-13T01:06:55;15.75;;;11.20;;
62861;SDS011;48953;53.110;5.592;2022-09-13T01:09:25;16.77;;;10.95;;
62861;SDS011;48953;53.110;5.592;2022-09-13T01:11:52;17.73;;;11.25;;
62861;SDS011;48953;53.110;5.592;2022-09-13T01:14:28;17.42;;;10.55;;
62861;SDS011;48953;53.110;5.592;2022-09-13T01:16:57;15.30;;;10.85;;
62861;SDS011;48953;53.110;5.592;2022-09-13T01:19:23;15.85;;;10.88;;
62861;SDS011;48953;53.110;5.592;2022-09-13T01:28:08;15.48;;;10.68;;
62861;SDS011;48953;53.110;5.592;2022-09-13T01:33:43;20.52;;;11.95;;
62861;SDS011;48953;53.110;5.592;2022-09-13T01:43:55;17.40;;;10.32;;
62861;SDS011;48953;53.110;5.592;2022-09-13T01:54:16;13.75;;;8.70;;
62861;SDS011;48953;53.110;5.592;2022-09-13T01:56:48;13.15;;;8.68;;
62861;SDS011;48953;53.110;5.592;2022-09-13T01:59:23;13.35;;;8.07;;
62861;SDS011;48953;53.110;5.592;2022-09-13T02:02:05;12.48;;;8.25;;
62861;SDS011;48953;53.110;5.592;2022-09-13T02:04:35;10.65;;;7.55;;
62861;SDS011;48953;53.110;5.592;2022-09-13T02:07:09;12.18;;;7.90;;
62861;SDS011;48953;53.110;5.592;2022-09-13T02:09:45;9.60;;;7.47;;
62861;SDS011;48953;53.110;5.592;2022-09-13T02:12:20;8.98;;;7.00;;
62861;SDS011;48953;53.110;5.592;2022-09-13T02:15:31;14.90;;;7.45;;
62861;SDS011;48953;53.110;5.592;2022-09-13T02:18:04;9.30;;;6.65;;
62861;SDS011;48953;53.110;5.592;2022-09-13T02:20:34;8.30;;;5.43;;
62861;SDS011;48953;53.110;5.592;2022-09-13T02:23:04;4.28;;;1.83;;
62861;SDS011;48953;53.110;5.592;2022-09-13T02:25:37;2.70;;;0.73;;
62861;SDS011;48953;53.110;5.592;2022-09-13T02:28:05;3.72;;;0.80;;
62861;SDS011;48953;53.110;5.592;2022-09-13T02:30:36;1.20;;;0.50;;
62861;SDS011;48953;53.110;5.592;2022-09-13T02:33:12;3.22;;;0.50;;
62861;SDS011;48953;53.110;5.592;2022-09-13T02:35:50;2.95;;;0.57;;
62861;SDS011;48953;53.110;5.592;2022-09-13T02:38:21;2.33;;;0.60;;
62861;SDS011;48953;53.110;5.592;2022-09-13T02:40:56;0.85;;;0.50;;
62861;SDS011;48953;53.110;5.592;2022-09-13T02:43:34;2.75;;;0.50;;
62861;SDS011;48953;53.110;5.592;2022-09-13T02:51:15;0.50;;;0.40;;
62861;SDS011;48953;53.110;5.592;2022-09-13T02:59:16;3.83;;;0.60;;
62861;SDS011;48953;53.110;5.592;2022-09-13T03:01:44;3.47;;;0.82;;
62861;SDS011;48953;53.110;5.592;2022-09-13T03:04:22;4.55;;;0.80;;
62861;SDS011;48953;53.110;5.592;2022-09-13T03:06:48;3.30;;;1.02;;
62861;SDS011;48953;53.110;5.592;2022-09-13T03:09:14;4.82;;;1.10;;
62861;SDS011;48953;53.110;5.592;2022-09-13T03:20:05;4.03;;;1.20;;
62861;SDS011;48953;53.110;5.592;2022-09-13T03:28:33;4.55;;;1.25;;
62861;SDS011;48953;53.110;5.592;2022-09-13T03:38:55;3.00;;;1.20;;
62861;SDS011;48953;53.110;5.592;2022-09-13T03:41:30;4.72;;;1.30;;
62861;SDS011;48953;53.110;5.592;2022-09-13T03:44:01;2.78;;;1.50;;
62861;SDS011;48953;53.110;5.592;2022-09-13T03:46:33;4.80;;;1.50;;
62861;SDS011;48953;53.110;5.592;2022-09-13T03:51:30;4.07;;;1.70;;
62861;SDS011;48953;53.110;5.592;2022-09-13T03:54:01;3.13;;;1.70;;
62861;SDS011;48953;53.110;5.592;2022-09-13T03:56:29;4.85;;;1.83;;
62861;SDS011;48953;53.110;5.592;2022-09-13T03:58:54;2.97;;;2.10;;
62861;SDS011;48953;53.110;5.592;2022-09-13T04:01:21;3.95;;;2.10;;
62861;SDS011;48953;53.110;5.592;2022-09-13T04:03:47;3.17;;;2.10;;
62861;SDS011;48953;53.110;5.592;2022-09-13T04:06:14;3.28;;;1.73;;
62861;SDS011;48953;53.110;5.592;2022-09-13T04:08:39;4.95;;;2.00;;
62861;SDS011;48953;53.110;5.592;2022-09-13T04:11:05;3.22;;;2.00;;
62861;SDS011;48953;53.110;5.592;2022-09-13T04:13:33;4.43;;;1.83;;
62861;SDS011;48953;53.110;5.592;2022-09-13T04:16:00;3.03;;;2.05;;
62861;SDS011;48953;53.110;5.592;2022-09-13T04:18:28;3.92;;;1.80;;
62861;SDS011;48953;53.110;5.592;2022-09-13T04:20:57;5.43;;;1.92;;
62861;SDS011;48953;53.110;5.592;2022-09-13T04:23:24;4.25;;;2.03;;
62861;SDS011;48953;53.110;5.592;2022-09-13T04:25:51;2.78;;;2.00;;
62861;SDS011;48953;53.110;5.592;2022-09-13T04:28:17;7.43;;;2.13;;
62861;SDS011;48953;53.110;5.592;2022-09-13T04:30:43;6.00;;;2.30;;
62861;SDS011;48953;53.110;5.592;2022-09-13T04:33:10;4.47;;;2.25;;
62861;SDS011;48953;53.110;5.592;2022-09-13T04:35:36;4.20;;;1.88;;
62861;SDS011;48953;53.110;5.592;2022-09-13T04:38:03;4.00;;;2.05;;
62861;SDS011;48953;53.110;5.592;2022-09-13T04:40:29;7.05;;;2.30;;
62861;SDS011;48953;53.110;5.592;2022-09-13T04:42:54;2.63;;;2.10;;
62861;SDS011;48953;53.110;5.592;2022-09-13T04:45:20;5.47;;;2.50;;
62861;SDS011;48953;53.110;5.592;2022-09-13T04:47:50;5.30;;;2.20;;
62861;SDS011;48953;53.110;5.592;2022-09-13T04:50:17;5.13;;;2.10;;
62861;SDS011;48953;53.110;5.592;2022-09-13T04:52:45;7.35;;;2.55;;
62861;SDS011;48953;53.110;5.592;2022-09-13T04:55:11;2.90;;;2.33;;
62861;SDS011;48953;53.110;5.592;2022-09-13T04:57:36;5.28;;;2.40;;
62861;SDS011;48953;53.110;5.592;2022-09-13T05:00:03;6.70;;;2.70;;
62861;SDS011;48953;53.110;5.592;2022-09-13T05:02:29;5.82;;;2.70;;
62861;SDS011;48953;53.110;5.592;2022-09-13T05:04:55;6.47;;;3.60;;
62861;SDS011;48953;53.110;5.592;2022-09-13T05:07:20;5.95;;;2.63;;
62861;SDS011;48953;53.110;5.592;2022-09-13T05:09:46;4.18;;;2.60;;
62861;SDS011;48953;53.110;5.592;2022-09-13T05:12:12;8.38;;;3.00;;
62861;SDS011;48953;53.110;5.592;2022-09-13T05:14:37;2.90;;;2.60;;
62861;SDS011;48953;53.110;5.592;2022-09-13T05:17:06;4.72;;;2.72;;
62861;SDS011;48953;53.110;5.592;2022-09-13T05:19:32;3.00;;;2.72;;
62861;SDS011;48953;53.110;5.592;2022-09-13T05:21:59;5.38;;;3.22;;
62861;SDS011;48953;53.110;5.592;2022-09-13T05:24:25;8.18;;;3.30;;
62861;SDS011;48953;53.110;5.592;2022-09-13T05:26:50;7.30;;;3.75;;
62861;SDS011;48953;53.110;5.592;2022-09-13T05:29:16;6.05;;;3.35;;
62861;SDS011;48953;53.110;5.592;2022-09-13T05:31:42;5.43;;;3.90;;
62861;SDS011;48953;53.110;5.592;2022-09-13T05:34:09;10.02;;;3.88;;
62861;SDS011;48953;53.110;5.592;2022-09-13T05:36:37;5.22;;;3.50;;
62861;SDS011;48953;53.110;5.592;2022-09-13T05:39:04;11.13;;;3.70;;
62861;SDS011;48953;53.110;5.592;2022-09-13T05:41:30;7.75;;;3.55;;
62861;SDS011;48953;53.110;5.592;2022-09-13T05:43:56;9.07;;;2.88;;
62861;SDS011;48953;53.110;5.592;2022-09-13T05:46:22;8.43;;;2.42;;
62861;SDS011;48953;53.110;5.592;2022-09-13T05:48:48;4.05;;;2.10;;
62861;SDS011;48953;53.110;5.592;2022-09-13T05:51:15;6.65;;;2.53;;
62861;SDS011;48953;53.110;5.592;2022-09-13T05:53:45;3.90;;;1.92;;
62861;SDS011;48953;53.110;5.592;2022-09-13T05:56:18;5.00;;;1.70;;
62861;SDS011;48953;53.110;5.592;2022-09-13T05:58:46;8.90;;;1.30;;
62861;SDS011;48953;53.110;5.592;2022-09-13T06:01:14;5.80;;;0.95;;
62861;SDS011;48953;53.110;5.592;2022-09-13T06:03:41;2.85;;;0.65;;
62861;SDS011;48953;53.110;5.592;2022-09-13T06:06:07;4.65;;;0.90;;
62861;SDS011;48953;53.110;5.592;2022-09-13T06:08:34;4.10;;;1.83;;
62861;SDS011;48953;53.110;5.592;2022-09-13T06:11:04;4.60;;;0.80;;
62861;SDS011;48953;53.110;5.592;2022-09-13T06:13:31;4.97;;;1.20;;
62861;SDS011;48953;53.110;5.592;2022-09-13T06:15:58;6.00;;;1.55;;
62861;SDS011;48953;53.110;5.592;2022-09-13T06:18:26;8.60;;;1.63;;
62861;SDS011;48953;53.110;5.592;2022-09-13T06:21:00;4.93;;;1.63;;
62861;SDS011;48953;53.110;5.592;2022-09-13T06:23:31;8.73;;;1.35;;
62861;SDS011;48953;53.110;5.592;2022-09-13T06:26:08;7.65;;;1.30;;
62861;SDS011;48953;53.110;5.592;2022-09-13T06:28:35;5.55;;;1.20;;
62861;SDS011;48953;53.110;5.592;2022-09-13T06:31:01;7.38;;;1.33;;
62861;SDS011;48953;53.110;5.592;2022-09-13T06:33:30;2.95;;;1.10;;
62861;SDS011;48953;53.110;5.592;2022-09-13T06:36:01;4.07;;;1.20;;
62861;SDS011;48953;53.110;5.592;2022-09-13T06:38:28;6.78;;;1.42;;
62861;SDS011;48953;53.110;5.592;2022-09-13T06:41:04;5.50;;;1.23;;
62861;SDS011;48953;53.110;5.592;2022-09-13T06:43:51;5.07;;;1.02;;
62861;SDS011;48953;53.110;5.592;2022-09-13T06:46:18;5.22;;;1.40;;
62861;SDS011;48953;53.110;5.592;2022-09-13T06:48:44;5.00;;;1.20;;
62861;SDS011;48953;53.110;5.592;2022-09-13T06:51:11;4.57;;;1.30;;
62861;SDS011;48953;53.110;5.592;2022-09-13T06:53:39;5.72;;;0.98;;
62861;SDS011;48953;53.110;5.592;2022-09-13T06:56:07;4.28;;;1.25;;
62861;SDS011;48953;53.110;5.592;2022-09-13T06:58:38;8.60;;;1.20;;
62861;SDS011;48953;53.110;5.592;2022-09-13T07:03:40;7.05;;;1.02;;
62861;SDS011;48953;53.110;5.592;2022-09-13T07:06:12;2.78;;;0.90;;
62861;SDS011;48953;53.110;5.592;2022-09-13T07:08:42;2.58;;;0.90;;
62861;SDS011;48953;53.110;5.592;2022-09-13T07:11:09;5.07;;;0.80;;
62861;SDS011;48953;53.110;5.592;2022-09-13T07:13:35;4.70;;;0.90;;
62861;SDS011;48953;53.110;5.592;2022-09-13T07:16:06;2.95;;;0.82;;
62861;SDS011;48953;53.110;5.592;2022-09-13T07:18:33;2.50;;;0.60;;
62861;SDS011;48953;53.110;5.592;2022-09-13T07:21:03;3.88;;;0.90;;
62861;SDS011;48953;53.110;5.592;2022-09-13T07:23:31;1.27;;;0.73;;
62861;SDS011;48953;53.110;5.592;2022-09-13T07:25:58;1.33;;;0.50;;
62861;SDS011;48953;53.110;5.592;2022-09-13T07:28:28;4.88;;;0.75;;
62861;SDS011;48953;53.110;5.592;2022-09-13T07:30:57;2.38;;;0.80;;
62861;SDS011;48953;53.110;5.592;2022-09-13T07:33:32;3.40;;;0.77;;
62861;SDS011;48953;53.110;5.592;2022-09-13T07:35:58;3.92;;;0.60;;
62861;SDS011;48953;53.110;5.592;2022-09-13T07:38:27;4.32;;;0.68;;
62861;SDS011;48953;53.110;5.592;2022-09-13T07:40:53;4.38;;;0.60;;
62861;SDS011;48953;53.110;5.592;2022-09-13T07:43:20;3.35;;;0.60;;
62861;SDS011;48953;53.110;5.592;2022-09-13T07:45:45;2.20;;;0.50;;
62861;SDS011;48953;53.110;5.592;2022-09-13T07:48:11;2.90;;;0.50;;
62861;SDS011;48953;53.110;5.592;2022-09-13T07:50:37;2.90;;;0.47;;
62861;SDS011;48953;53.110;5.592;2022-09-13T07:53:02;3.90;;;0.80;;
62861;SDS011;48953;53.110;5.592;2022-09-13T07:55:28;2.47;;;0.50;;
62861;SDS011;48953;53.110;5.592;2022-09-13T07:57:55;2.72;;;0.50;;
62861;SDS011;48953;53.110;5.592;2022-09-13T08:00:21;1.35;;;0.40;;
62861;SDS011;48953;53.110;5.592;2022-09-13T08:02:49;4.18;;;0.63;;
62861;SDS011;48953;53.110;5.592;2022-09-13T08:05:14;4.75;;;0.60;;
62861;SDS011;48953;53.110;5.592;2022-09-13T08:07:40;3.83;;;0.50;;
62861;SDS011;48953;53.110;5.592;2022-09-13T08:10:05;2.42;;;0.43;;
62861;SDS011;48953;53.110;5.592;2022-09-13T08:12:31;4.10;;;0.70;;
62861;SDS011;48953;53.110;5.592;2022-09-13T08:14:57;1.67;;;0.40;;
62861;SDS011;48953;53.110;5.592;2022-09-13T08:17:22;5.68;;;0.63;;
62861;SDS011;48953;53.110;5.592;2022-09-13T08:19:48;3.22;;;0.68;;
62861;SDS011;48953;53.110;5.592;2022-09-13T08:22:13;3.75;;;0.68;;
62861;SDS011;48953;53.110;5.592;2022-09-13T08:24:39;3.60;;;0.60;;
62861;SDS011;48953;53.110;5.592;2022-09-13T08:27:04;4.30;;;0.70;;
62861;SDS011;48953;53.110;5.592;2022-09-13T08:29:30;2.88;;;0.40;;
62861;SDS011;48953;53.110;5.592;2022-09-13T08:31:55;3.22;;;0.50;;
62861;SDS011;48953;53.110;5.592;2022-09-13T08:34:21;2.60;;;0.73;;
62861;SDS011;48953;53.110;5.592;2022-09-13T08:36:47;7.05;;;0.57;;
62861;SDS011;48953;53.110;5.592;2022-09-13T08:39:12;4.30;;;0.80;;
62861;SDS011;48953;53.110;5.592;2022-09-13T08:46:34;2.83;;;0.70;;
62861;SDS011;48953;53.110;5.592;2022-09-13T08:49:05;2.33;;;0.55;;
62861;SDS011;48953;53.110;5.592;2022-09-13T08:51:38;3.97;;;0.82;;
62861;SDS011;48953;53.110;5.592;2022-09-13T08:54:12;2.38;;;0.40;;
62861;SDS011;48953;53.110;5.592;2022-09-13T08:56:51;2.97;;;0.55;;
62861;SDS011;48953;53.110;5.592;2022-09-13T09:05:24;3.22;;;0.50;;
62861;SDS011;48953;53.110;5.592;2022-09-13T09:08:05;2.10;;;0.65;;
62861;SDS011;48953;53.110;5.592;2022-09-13T09:10:40;2.10;;;0.50;;
62861;SDS011;48953;53.110;5.592;2022-09-13T09:13:12;3.40;;;0.55;;
62861;SDS011;48953;53.110;5.592;2022-09-13T09:15:59;4.00;;;0.50;;
62861;SDS011;48953;53.110;5.592;2022-09-13T09:18:34;3.83;;;0.85;;
62861;SDS011;48953;53.110;5.592;2022-09-13T09:21:05;4.00;;;0.90;;
62861;SDS011;48953;53.110;5.592;2022-09-13T09:23:55;2.40;;;0.52;;
62861;SDS011;48953;53.110;5.592;2022-09-13T09:26:25;3.38;;;0.50;;
62861;SDS011;48953;53.110;5.592;2022-09-13T09:29:26;2.45;;;0.32;;
62861;SDS011;48953;53.110;5.592;2022-09-13T09:34:19;2.45;;;0.40;;
62861;SDS011;48953;53.110;5.592;2022-09-13T09:36:53;2.75;;;0.40;;
62861;SDS011;48953;53.110;5.592;2022-09-13T09:39:33;3.70;;;0.55;;
62861;SDS011;48953;53.110;5.592;2022-09-13T09:42:02;3.58;;;0.40;;
62861;SDS011;48953;53.110;5.592;2022-09-13T09:44:29;2.35;;;0.40;;
62861;SDS011;48953;53.110;5.592;2022-09-13T09:49:47;3.97;;;0.80;;
62861;SDS011;48953;53.110;5.592;2022-09-13T09:58:06;2.75;;;0.40;;
62861;SDS011;48953;53.110;5.592;2022-09-13T10:00:36;1.85;;;0.40;;
62861;SDS011;48953;53.110;5.592;2022-09-13T10:03:18;2.70;;;1.17;;
62861;SDS011;48953;53.110;5.592;2022-09-13T10:05:45;4.32;;;0.50;;
62861;SDS011;48953;53.110;5.592;2022-09-13T10:08:30;2.00;;;0.50;;
62861;SDS011;48953;53.110;5.592;2022-09-13T10:10:58;1.98;;;0.50;;
62861;SDS011;48953;53.110;5.592;2022-09-13T10:13:26;1.38;;;0.30;;
62861;SDS011;48953;53.110;5.592;2022-09-13T10:15:58;1.67;;;0.43;;
62861;SDS011;48953;53.110;5.592;2022-09-13T10:18:27;3.22;;;0.40;;
62861;SDS011;48953;53.110;5.592;2022-09-13T10:21:16;5.82;;;0.47;;
62861;SDS011;48953;53.110;5.592;2022-09-13T10:23:48;2.63;;;0.47;;
62861;SDS011;48953;53.110;5.592;2022-09-13T10:26:15;1.48;;;0.30;;
62861;SDS011;48953;53.110;5.592;2022-09-13T10:31:13;5.25;;;0.70;;
62861;SDS011;48953;53.110;5.592;2022-09-13T10:33:46;4.05;;;0.50;;
62861;SDS011;48953;53.110;5.592;2022-09-13T10:36:28;2.03;;;0.60;;
62861;SDS011;48953;53.110;5.592;2022-09-13T10:38:57;3.13;;;0.32;;
62861;SDS011;48953;53.110;5.592;2022-09-13T10:41:29;0.95;;;0.28;;
62861;SDS011;48953;53.110;5.592;2022-09-13T10:44:02;3.38;;;0.47;;
62861;SDS011;48953;53.110;5.592;2022-09-13T10:46:33;4.07;;;0.70;;
62861;SDS011;48953;53.110;5.592;2022-09-13T10:49:03;4.05;;;0.43;;
62861;SDS011;48953;53.110;5.592;2022-09-13T10:51:33;3.03;;;0.65;;
62861;SDS011;48953;53.110;5.592;2022-09-13T10:54:20;2.90;;;0.60;;
62861;SDS011;48953;53.110;5.592;2022-09-13T10:56:48;2.20;;;0.50;;
62861;SDS011;48953;53.110;5.592;2022-09-13T10:59:19;3.03;;;0.30;;
62861;SDS011;48953;53.110;5.592;2022-09-13T11:10:34;5.82;;;0.70;;
62861;SDS011;48953;53.110;5.592;2022-09-13T11:13:23;1.75;;;0.40;;
62861;SDS011;48953;53.110;5.592;2022-09-13T11:21:44;2.45;;;0.60;;
62861;SDS011;48953;53.110;5.592;2022-09-13T11:27:26;4.75;;;0.50;;
62861;SDS011;48953;53.110;5.592;2022-09-13T11:30:19;1.65;;;0.52;;
62861;SDS011;48953;53.110;5.592;2022-09-13T11:35:30;3.08;;;0.60;;
62861;SDS011;48953;53.110;5.592;2022-09-13T11:43:59;4.18;;;0.60;;
62861;SDS011;48953;53.110;5.592;2022-09-13T11:49:25;5.53;;;0.93;;
62861;SDS011;48953;53.110;5.592;2022-09-13T11:52:18;2.67;;;0.50;;
62861;SDS011;48953;53.110;5.592;2022-09-13T11:55:02;3.60;;;0.70;;
62861;SDS011;48953;53.110;5.592;2022-09-13T11:57:32;3.85;;;0.75;;
62861;SDS011;48953;53.110;5.592;2022-09-13T12:05:33;2.50;;;0.40;;
62861;SDS011;48953;53.110;5.592;2022-09-13T12:08:23;5.47;;;0.77;;
62861;SDS011;48953;53.110;5.592;2022-09-13T12:10:57;3.67;;;0.67;;
62861;SDS011;48953;53.110;5.592;2022-09-13T12:13:28;4.85;;;0.90;;
62861;SDS011;48953;53.110;5.592;2022-09-13T12:15:58;5.63;;;0.80;;
62861;SDS011;48953;53.110;5.592;2022-09-13T12:18:29;9.35;;;1.42;;
62861;SDS011;48953;53.110;5.592;2022-09-13T12:23:41;7.15;;;1.33;;
62861;SDS011;48953;53.110;5.592;2022-09-13T12:26:19;5.60;;;1.05;;
62861;SDS011;48953;53.110;5.592;2022-09-13T12:32:03;4.85;;;0.60;;
62861;SDS011;48953;53.110;5.592;2022-09-13T12:34:39;7.75;;;0.70;;
62861;SDS011;48953;53.110;5.592;2022-09-13T12:45:32;4.43;;;0.70;;
62861;SDS011;48953;53.110;5.592;2022-09-13T12:56:45;4.07;;;0.70;;
62861;SDS011;48953;53.110;5.592;2022-09-13T12:59:23;7.68;;;1.00;;
62861;SDS011;48953;53.110;5.592;2022-09-13T13:01:52;5.55;;;0.60;;
62861;SDS011;48953;53.110;5.592;2022-09-13T13:04:19;4.72;;;0.73;;
62861;SDS011;48953;53.110;5.592;2022-09-13T13:06:53;4.43;;;0.60;;
62861;SDS011;48953;53.110;5.592;2022-09-13T13:12:09;4.70;;;0.68;;
62861;SDS011;48953;53.110;5.592;2022-09-13T13:23:35;2.47;;;0.30;;
62861;SDS011;48953;53.110;5.592;2022-09-13T13:28:48;6.45;;;0.80;;
62861;SDS011;48953;53.110;5.592;2022-09-13T13:33:49;2.42;;;0.60;;
62861;SDS011;48953;53.110;5.592;2022-09-13T13:36:24;3.70;;;0.70;;
62861;SDS011;48953;53.110;5.592;2022-09-13T13:38:53;4.78;;;0.60;;
62861;SDS011;48953;53.110;5.592;2022-09-13T13:43:58;2.17;;;0.55;;
62861;SDS011;48953;53.110;5.592;2022-09-13T13:46:26;2.15;;;0.55;;
62861;SDS011;48953;53.110;5.592;2022-09-13T13:48:54;2.13;;;0.60;;
62861;SDS011;48953;53.110;5.592;2022-09-13T13:51:24;7.10;;;0.80;;
62861;SDS011;48953;53.110;5.592;2022-09-13T13:57:00;5.13;;;0.63;;
62861;SDS011;48953;53.110;5.592;2022-09-13T13:59:29;5.32;;;0.65;;
62861;SDS011;48953;53.110;5.592;2022-09-13T14:01:57;3.63;;;0.40;;
62861;SDS011;48953;53.110;5.592;2022-09-13T14:07:11;5.15;;;0.50;;
62861;SDS011;48953;53.110;5.592;2022-09-13T14:20:57;3.60;;;0.60;;
62861;SDS011;48953;53.110;5.592;2022-09-13T14:23:27;3.78;;;0.50;;
62861;SDS011;48953;53.110;5.592;2022-09-13T14:25:53;3.95;;;0.70;;
62861;SDS011;48953;53.110;5.592;2022-09-13T14:28:22;1.23;;;0.40;;
62861;SDS011;48953;53.110;5.592;2022-09-13T14:30:51;3.92;;;0.47;;
62861;SDS011;48953;53.110;5.592;2022-09-13T14:33:24;2.40;;;0.50;;
62861;SDS011;48953;53.110;5.592;2022-09-13T14:36:13;4.80;;;0.60;;
62861;SDS011;48953;53.110;5.592;2022-09-13T14:38:49;5.15;;;0.73;;
62861;SDS011;48953;53.110;5.592;2022-09-13T14:41:18;3.60;;;0.52;;
62861;SDS011;48953;53.110;5.592;2022-09-13T14:43:45;2.15;;;0.70;;
62861;SDS011;48953;53.110;5.592;2022-09-13T14:51:17;4.63;;;0.47;;
62861;SDS011;48953;53.110;5.592;2022-09-13T14:53:52;3.63;;;0.50;;
62861;SDS011;48953;53.110;5.592;2022-09-13T14:56:38;6.00;;;1.25;;
62861;SDS011;48953;53.110;5.592;2022-09-13T14:59:12;3.80;;;0.70;;
62861;SDS011;48953;53.110;5.592;2022-09-13T15:01:43;3.08;;;0.70;;
62861;SDS011;48953;53.110;5.592;2022-09-13T15:04:08;3.80;;;0.30;;
62861;SDS011;48953;53.110;5.592;2022-09-13T15:06:35;3.28;;;0.40;;
62861;SDS011;48953;53.110;5.592;2022-09-13T15:11:56;4.15;;;0.70;;
62861;SDS011;48953;53.110;5.592;2022-09-13T15:14:34;2.95;;;0.52;;
62861;SDS011;48953;53.110;5.592;2022-09-13T15:17:11;4.03;;;0.80;;
62861;SDS011;48953;53.110;5.592;2022-09-13T15:19:47;2.08;;;0.60;;
62861;SDS011;48953;53.110;5.592;2022-09-13T15:22:17;3.38;;;0.80;;
62861;SDS011;48953;53.110;5.592;2022-09-13T15:24:50;5.93;;;0.73;;
62861;SDS011;48953;53.110;5.592;2022-09-13T15:35:36;6.10;;;0.82;;
62861;SDS011;48953;53.110;5.592;2022-09-13T15:38:18;3.17;;;1.10;;
62861;SDS011;48953;53.110;5.592;2022-09-13T15:43:49;3.20;;;0.60;;
62861;SDS011;48953;53.110;5.592;2022-09-13T15:46:15;4.47;;;0.88;;
62861;SDS011;48953;53.110;5.592;2022-09-13T15:49:24;7.28;;;0.90;;
62861;SDS011;48953;53.110;5.592;2022-09-13T15:51:30;5.28;;;0.77;;
62861;SDS011;48953;53.110;5.592;2022-09-13T15:53:57;4.25;;;0.80;;
62861;SDS011;48953;53.110;5.592;2022-09-13T15:56:26;2.80;;;0.70;;
62861;SDS011;48953;53.110;5.592;2022-09-13T15:58:56;4.15;;;0.73;;
62861;SDS011;48953;53.110;5.592;2022-09-13T16:01:22;2.97;;;0.52;;
62861;SDS011;48953;53.110;5.592;2022-09-13T16:03:48;3.50;;;0.75;;
62861;SDS011;48953;53.110;5.592;2022-09-13T16:06:13;5.30;;;1.05;;
62861;SDS011;48953;53.110;5.592;2022-09-13T16:08:39;1.50;;;0.50;;
62861;SDS011;48953;53.110;5.592;2022-09-13T16:11:05;4.78;;;0.90;;
62861;SDS011;48953;53.110;5.592;2022-09-13T16:13:31;4.32;;;0.70;;
62861;SDS011;48953;53.110;5.592;2022-09-13T16:15:57;6.32;;;0.82;;
62861;SDS011;48953;53.110;5.592;2022-09-13T16:18:23;8.05;;;0.80;;
62861;SDS011;48953;53.110;5.592;2022-09-13T16:20:49;3.38;;;0.93;;
62861;SDS011;48953;53.110;5.592;2022-09-13T16:23:15;4.68;;;0.60;;
62861;SDS011;48953;53.110;5.592;2022-09-13T16:25:42;4.85;;;0.88;;
62861;SDS011;48953;53.110;5.592;2022-09-13T16:28:11;5.07;;;0.80;;
62861;SDS011;48953;53.110;5.592;2022-09-13T16:30:41;4.22;;;0.60;;
62861;SDS011;48953;53.110;5.592;2022-09-13T16:33:07;3.65;;;0.60;;
62861;SDS011;48953;53.110;5.592;2022-09-13T16:35:33;3.00;;;0.40;;
62861;SDS011;48953;53.110;5.592;2022-09-13T16:37:58;4.43;;;0.63;;
62861;SDS011;48953;53.110;5.592;2022-09-13T16:40:24;4.82;;;0.70;;
62861;SDS011;48953;53.110;5.592;2022-09-13T16:42:50;3.80;;;0.60;;
62861;SDS011;48953;53.110;5.592;2022-09-13T16:45:16;2.45;;;0.45;;
62861;SDS011;48953;53.110;5.592;2022-09-13T16:47:42;2.17;;;0.40;;
62861;SDS011;48953;53.110;5.592;2022-09-13T16:50:08;3.40;;;0.57;;
62861;SDS011;48953;53.110;5.592;2022-09-13T16:52:34;1.73;;;0.40;;
62861;SDS011;48953;53.110;5.592;2022-09-13T16:55:00;3.95;;;0.68;;
62861;SDS011;48953;53.110;5.592;2022-09-13T16:57:26;4.80;;;0.40;;
62861;SDS011;48953;53.110;5.592;2022-09-13T16:59:52;2.05;;;0.50;;
62861;SDS011;48953;53.110;5.592;2022-09-13T17:02:20;5.00;;;0.60;;
62861;SDS011;48953;53.110;5.592;2022-09-13T17:04:46;3.10;;;0.68;;
62861;SDS011;48953;53.110;5.592;2022-09-13T17:07:12;1.77;;;0.50;;
62861;SDS011;48953;53.110;5.592;2022-09-13T17:09:38;3.42;;;0.70;;
62861;SDS011;48953;53.110;5.592;2022-09-13T17:12:08;3.47;;;0.50;;
62861;SDS011;48953;53.110;5.592;2022-09-13T17:14:36;6.97;;;0.50;;
62861;SDS011;48953;53.110;5.592;2022-09-13T17:17:03;3.38;;;0.50;;
62861;SDS011;48953;53.110;5.592;2022-09-13T17:19:30;1.50;;;0.47;;
62861;SDS011;48953;53.110;5.592;2022-09-13T17:22:00;3.55;;;0.40;;
62861;SDS011;48953;53.110;5.592;2022-09-13T17:24:30;2.33;;;0.40;;
62861;SDS011;48953;53.110;5.592;2022-09-13T17:26:56;4.75;;;0.50;;
62861;SDS011;48953;53.110;5.592;2022-09-13T17:29:22;1.40;;;0.40;;
62861;SDS011;48953;53.110;5.592;2022-09-13T17:31:55;3.40;;;0.40;;
62861;SDS011;48953;53.110;5.592;2022-09-13T17:34:24;2.13;;;0.40;;
62861;SDS011;48953;53.110;5.592;2022-09-13T17:36:50;1.60;;;0.60;;
62861;SDS011;48953;53.110;5.592;2022-09-13T17:39:17;3.38;;;0.30;;
62861;SDS011;48953;53.110;5.592;2022-09-13T17:41:43;2.67;;;0.50;;
62861;SDS011;48953;53.110;5.592;2022-09-13T17:44:09;2.35;;;0.50;;
62861;SDS011;48953;53.110;5.592;2022-09-13T17:46:36;6.50;;;0.52;;
62861;SDS011;48953;53.110;5.592;2022-09-13T17:49:03;1.65;;;0.35;;
62861;SDS011;48953;53.110;5.592;2022-09-13T17:51:29;6.93;;;0.60;;
62861;SDS011;48953;53.110;5.592;2022-09-13T17:53:57;2.60;;;0.50;;
62861;SDS011;48953;53.110;5.592;2022-09-13T17:56:26;5.07;;;0.50;;
62861;SDS011;48953;53.110;5.592;2022-09-13T17:58:56;2.35;;;0.75;;
62861;SDS011;48953;53.110;5.592;2022-09-13T18:01:27;3.13;;;0.30;;
62861;SDS011;48953;53.110;5.592;2022-09-13T18:03:53;2.88;;;1.05;;
62861;SDS011;48953;53.110;5.592;2022-09-13T18:06:19;1.60;;;0.40;;
62861;SDS011;48953;53.110;5.592;2022-09-13T18:08:45;1.13;;;0.30;;
62861;SDS011;48953;53.110;5.592;2022-09-13T18:11:12;3.90;;;0.52;;
62861;SDS011;48953;53.110;5.592;2022-09-13T18:13:40;3.30;;;1.05;;
62861;SDS011;48953;53.110;5.592;2022-09-13T18:16:09;1.30;;;0.40;;
62861;SDS011;48953;53.110;5.592;2022-09-13T18:18:37;4.15;;;0.45;;
62861;SDS011;48953;53.110;5.592;2022-09-13T18:21:03;2.03;;;0.50;;
62861;SDS011;48953;53.110;5.592;2022-09-13T18:23:29;2.65;;;0.40;;
62861;SDS011;48953;53.110;5.592;2022-09-13T18:26:03;1.90;;;0.52;;
62861;SDS011;48953;53.110;5.592;2022-09-13T18:28:31;2.17;;;0.50;;